Time;durP1;ratioP1;P1;durP2;ratioP2;P2;SDS_P1;SDS_P2;PMS_P1;PMS_P2;Temp;Humidity;BMP_temperature;BMP_pressure;BME280_temperature;BME280_humidity;BME280_pressure;Samples;Min_cycle;Max_cycle;Signal;HPM_P1;HPM_P2
2023/11/23 00:00:51;;;;;;;39.20;15.47;;;;;;;;;;5018714;28;20025;-66
2023/11/23 00:03:16;;;;;;;39.03;14.80;;;;;;;;;;5017250;28;20021;-64
2023/11/23 00:05:41;;;;;;;37.23;14.80;;;;;;;;;;5016355;28;20053;-64
2023/11/23 00:08:06;;;;;;;33.07;13.30;;;;;;;;;;5018345;28;20025;-64
2023/11/23 00:10:32;;;;;;;39.13;14.90;;;;;;;;;;5013079;28;20105;-64
2023/11/23 00:12:57;;;;;;;42.17;16.03;;;;;;;;;;5017339;28;20512;-64
2023/11/23 00:15:22;;;;;;;42.57;16.50;;;;;;;;;;5015114;28;20079;-69
2023/11/23 00:17:47;;;;;;;40.00;14.23;;;;;;;;;;5021794;28;20071;-68
2023/11/23 00:20:13;;;;;;;37.50;14.07;;;;;;;;;;5010153;28;20034;-69
2023/11/23 00:22:38;;;;;;;34.40;13.40;;;;;;;;;;5010931;28;20053;-66
2023/11/23 00:25:04;;;;;;;46.20;15.60;;;;;;;;;;5023093;28;20111;-68
2023/11/23 00:27:30;;;;;;;44.83;16.50;;;;;;;;;;5019154;28;20018;-67
2023/11/23 00:29:55;;;;;;;41.47;16.80;;;;;;;;;;5021368;28;20029;-68
2023/11/23 00:32:22;;;;;;;42.27;16.23;;;;;;;;;;5012945;28;20445;-70
2023/11/23 00:34:47;;;;;;;40.83;13.70;;;;;;;;;;5019893;28;20402;-70
2023/11/23 00:37:13;;;;;;;46.40;17.70;;;;;;;;;;5018033;28;20034;-68
2023/11/23 00:39:38;;;;;;;48.13;18.90;;;;;;;;;;5018044;28;20029;-67
2023/11/23 00:42:03;;;;;;;46.33;16.83;;;;;;;;;;5018920;28;20025;-68
2023/11/23 00:44:31;;;;;;;47.03;17.23;;;;;;;;;;5016876;28;20030;-66
2023/11/23 00:46:56;;;;;;;48.53;17.30;;;;;;;;;;5018965;28;20668;-65
2023/11/23 00:49:21;;;;;;;42.67;16.30;;;;;;;;;;5014043;28;20101;-70
2023/11/23 00:51:47;;;;;;;47.47;17.03;;;;;;;;;;5012869;28;20016;-67
2023/11/23 00:54:12;;;;;;;44.87;16.17;;;;;;;;;;5018710;28;20014;-67
2023/11/23 00:56:37;;;;;;;48.77;17.43;;;;;;;;;;5011703;28;20246;-68
2023/11/23 00:59:03;;;;;;;51.43;18.27;;;;;;;;;;5020498;28;20069;-70
2023/11/23 01:01:28;;;;;;;44.67;17.10;;;;;;;;;;5013117;28;20037;-67
2023/11/23 01:03:54;;;;;;;48.00;17.83;;;;;;;;;;5017585;28;20091;-67
2023/11/23 01:06:19;;;;;;;53.23;18.70;;;;;;;;;;5015048;28;20104;-68
2023/11/23 01:08:44;;;;;;;47.30;18.33;;;;;;;;;;5011370;28;20018;-68
2023/11/23 01:11:09;;;;;;;42.03;16.37;;;;;;;;;;5020807;28;20031;-68
2023/11/23 01:13:35;;;;;;;51.87;17.73;;;;;;;;;;5013943;28;20025;-69
2023/11/23 01:16:02;;;;;;;46.43;17.47;;;;;;;;;;5019234;28;20060;-70
2023/11/23 01:18:27;;;;;;;47.50;17.87;;;;;;;;;;5015823;28;20067;-67
2023/11/23 01:20:52;;;;;;;49.47;18.23;;;;;;;;;;5019032;28;20017;-66
2023/11/23 01:23:18;;;;;;;29.80;11.43;;;;;;;;;;5020206;28;20077;-70
2023/11/23 01:25:43;;;;;;;45.83;18.40;;;;;;;;;;5017084;28;20101;-63
2023/11/23 01:28:08;;;;;;;49.53;18.00;;;;;;;;;;5013051;28;20029;-65
2023/11/23 01:30:33;;;;;;;37.67;15.50;;;;;;;;;;5010350;28;20022;-68
2023/11/23 01:32:59;;;;;;;43.67;17.23;;;;;;;;;;5021991;28;20013;-68
2023/11/23 01:35:24;;;;;;;46.47;18.87;;;;;;;;;;5016171;28;20033;-69
2023/11/23 01:37:49;;;;;;;43.03;17.20;;;;;;;;;;5023788;28;20025;-70
2023/11/23 01:40:15;;;;;;;45.97;16.93;;;;;;;;;;5015400;28;20022;-69
2023/11/23 01:42:40;;;;;;;44.57;16.97;;;;;;;;;;5020816;28;20013;-68
2023/11/23 01:45:06;;;;;;;49.43;18.60;;;;;;;;;;5017634;28;20030;-71
2023/11/23 01:47:32;;;;;;;37.13;14.40;;;;;;;;;;5021016;28;20022;-69
2023/11/23 01:50:03;;;;;;;47.77;18.10;;;;;;;;;;5025240;28;20021;-68
2023/11/23 01:52:28;;;;;;;35.47;14.30;;;;;;;;;;5015636;28;20399;-68
2023/11/23 01:54:54;;;;;;;39.80;14.43;;;;;;;;;;5016913;28;20060;-69
2023/11/23 01:57:19;;;;;;;49.37;19.40;;;;;;;;;;5022719;28;20049;-68
2023/11/23 01:59:44;;;;;;;43.57;16.30;;;;;;;;;;5018403;28;20029;-66
2023/11/23 02:02:10;;;;;;;43.63;16.37;;;;;;;;;;5020288;28;20051;-66
2023/11/23 02:04:35;;;;;;;46.07;18.20;;;;;;;;;;5016903;28;20026;-67
2023/11/23 02:07:01;;;;;;;48.47;17.83;;;;;;;;;;5021796;28;20045;-69
2023/11/23 02:09:28;;;;;;;40.07;16.43;;;;;;;;;;5021606;28;20063;-70
2023/11/23 02:11:53;;;;;;;48.60;18.63;;;;;;;;;;5015568;28;20048;-70
2023/11/23 02:14:19;;;;;;;46.27;17.30;;;;;;;;;;5018346;28;20479;-67
2023/11/23 02:16:44;;;;;;;49.97;19.00;;;;;;;;;;5016608;28;20371;-68
2023/11/23 02:19:09;;;;;;;49.40;18.43;;;;;;;;;;5021146;28;20115;-66
2023/11/23 02:21:35;;;;;;;49.80;19.10;;;;;;;;;;5021933;28;20088;-67
2023/11/23 02:24:04;;;;;;;46.47;18.17;;;;;;;;;;5021284;28;20017;-68
2023/11/23 02:26:31;;;;;;;50.43;19.03;;;;;;;;;;5015242;28;20036;-70
2023/11/23 02:28:57;;;;;;;48.10;17.67;;;;;;;;;;5019502;28;20462;-67
2023/11/23 02:31:22;;;;;;;45.63;18.30;;;;;;;;;;5021836;28;20032;-70
2023/11/23 02:33:47;;;;;;;48.43;18.53;;;;;;;;;;5022773;28;20315;-68
2023/11/23 02:36:12;;;;;;;53.63;18.53;;;;;;;;;;5020958;28;20068;-64
2023/11/23 02:38:37;;;;;;;46.93;18.37;;;;;;;;;;5012743;28;20092;-64
2023/11/23 02:41:03;;;;;;;50.80;18.33;;;;;;;;;;5025612;28;20028;-63
2023/11/23 02:43:28;;;;;;;54.47;19.87;;;;;;;;;;5014416;28;20034;-65
2023/11/23 02:45:54;;;;;;;49.37;18.73;;;;;;;;;;5023715;28;20683;-65
2023/11/23 02:48:20;;;;;;;42.83;17.43;;;;;;;;;;5017930;28;20030;-63
2023/11/23 02:50:45;;;;;;;64.00;21.53;;;;;;;;;;5016176;28;20018;-65
2023/11/23 02:53:27;;;;;;;56.93;20.90;;;;;;;;;;5022284;28;20569;-64
2023/11/23 02:55:52;;;;;;;52.40;19.65;;;;;;;;;;5014621;28;20040;-62
2023/11/23 02:58:17;;;;;;;49.10;18.20;;;;;;;;;;5020241;28;20025;-64
2023/11/23 03:00:43;;;;;;;47.80;18.23;;;;;;;;;;5018068;28;20025;-64
2023/11/23 03:03:08;;;;;;;49.60;19.50;;;;;;;;;;5015473;28;20437;-63
2023/11/23 03:05:33;;;;;;;50.20;18.47;;;;;;;;;;5019299;28;20108;-64
2023/11/23 03:07:58;;;;;;;50.63;20.97;;;;;;;;;;5017305;28;20045;-64
2023/11/23 03:10:24;;;;;;;55.17;19.60;;;;;;;;;;5019400;28;20017;-64
2023/11/23 03:12:49;;;;;;;48.73;18.17;;;;;;;;;;5017466;28;20022;-63
2023/11/23 03:15:15;;;;;;;48.93;18.57;;;;;;;;;;5017299;28;20048;-64
2023/11/23 03:17:40;;;;;;;33.67;13.93;;;;;;;;;;5020102;28;20026;-64
2023/11/23 03:20:05;;;;;;;49.00;19.43;;;;;;;;;;5020715;28;20049;-63
2023/11/23 03:22:30;;;;;;;41.63;15.63;;;;;;;;;;5017865;28;20042;-64
2023/11/23 03:24:56;;;;;;;52.30;19.67;;;;;;;;;;5020078;28;20033;-64
2023/11/23 03:27:21;;;;;;;50.10;18.57;;;;;;;;;;5020531;28;20025;-65
2023/11/23 03:29:46;;;;;;;56.77;21.20;;;;;;;;;;5020168;28;20049;-66
2023/11/23 03:32:11;;;;;;;47.43;18.27;;;;;;;;;;5021181;28;20084;-65
2023/11/23 03:34:37;;;;;;;34.67;14.27;;;;;;;;;;5018175;28;20030;-64
2023/11/23 03:37:02;;;;;;;40.03;16.53;;;;;;;;;;5013999;28;20044;-64
2023/11/23 03:39:27;;;;;;;52.13;21.27;;;;;;;;;;5018774;28;20033;-65
2023/11/23 03:41:52;;;;;;;44.90;16.97;;;;;;;;;;5021321;28;20108;-66
2023/11/23 03:44:18;;;;;;;47.33;17.37;;;;;;;;;;5020818;28;20029;-63
2023/11/23 03:46:43;;;;;;;44.60;17.50;;;;;;;;;;5013931;28;20619;-63
2023/11/23 03:49:08;;;;;;;57.00;22.80;;;;;;;;;;5020947;28;20076;-63
2023/11/23 03:51:33;;;;;;;49.33;18.90;;;;;;;;;;5014482;28;20438;-64
2023/11/23 03:54:01;;;;;;;58.63;22.07;;;;;;;;;;5019337;28;20036;-65
2023/11/23 03:56:26;;;;;;;53.90;22.23;;;;;;;;;;5018623;28;20027;-64
2023/11/23 03:58:51;;;;;;;55.63;20.53;;;;;;;;;;5015739;28;20029;-63
2023/11/23 04:01:18;;;;;;;46.00;18.70;;;;;;;;;;5015454;28;20482;-65
2023/11/23 04:03:46;;;;;;;52.73;20.27;;;;;;;;;;5017623;28;20493;-64
2023/11/23 04:06:12;;;;;;;54.20;19.77;;;;;;;;;;5013501;28;20538;-64
2023/11/23 04:08:38;;;;;;;50.33;18.43;;;;;;;;;;5016494;28;20033;-63
2023/11/23 04:11:05;;;;;;;45.03;17.63;;;;;;;;;;5015090;28;20021;-66
2023/11/23 04:13:30;;;;;;;50.80;19.67;;;;;;;;;;5017462;28;20049;-63
2023/11/23 04:15:55;;;;;;;42.73;18.13;;;;;;;;;;5015920;28;20092;-63
2023/11/23 04:18:20;;;;;;;50.93;21.17;;;;;;;;;;5011683;28;20045;-63
2023/11/23 04:20:46;;;;;;;56.17;20.87;;;;;;;;;;5020261;28;20021;-65
2023/11/23 04:23:11;;;;;;;47.40;19.57;;;;;;;;;;5017714;28;20197;-63
2023/11/23 04:25:36;;;;;;;54.07;22.13;;;;;;;;;;5017408;28;20022;-63
2023/11/23 04:28:02;;;;;;;45.67;18.70;;;;;;;;;;5018211;28;20025;-65
2023/11/23 04:30:27;;;;;;;52.53;21.00;;;;;;;;;;5017030;28;20032;-63
2023/11/23 04:32:52;;;;;;;38.40;15.93;;;;;;;;;;5017621;28;20025;-64
2023/11/23 04:35:17;;;;;;;46.60;19.67;;;;;;;;;;5021808;28;20022;-64
2023/11/23 04:37:43;;;;;;;51.97;20.40;;;;;;;;;;5018369;28;20315;-66
2023/11/23 04:40:10;;;;;;;49.50;20.60;;;;;;;;;;5021965;28;20028;-63
2023/11/23 04:42:36;;;;;;;46.30;18.57;;;;;;;;;;5018735;28;20026;-63
2023/11/23 04:45:03;;;;;;;41.60;18.63;;;;;;;;;;5020098;28;20356;-64
2023/11/23 04:47:28;;;;;;;48.57;20.90;;;;;;;;;;5019686;28;20083;-63
2023/11/23 04:49:54;;;;;;;47.67;20.17;;;;;;;;;;5019247;28;20030;-64
2023/11/23 04:52:19;;;;;;;43.63;18.33;;;;;;;;;;5017467;28;20457;-63
2023/11/23 04:54:44;;;;;;;46.37;18.60;;;;;;;;;;5018935;28;20071;-64
2023/11/23 04:57:09;;;;;;;50.03;20.70;;;;;;;;;;5017445;28;20053;-64
2023/11/23 04:59:35;;;;;;;47.27;19.03;;;;;;;;;;5019155;28;20013;-64
2023/11/23 05:02:00;;;;;;;40.47;17.30;;;;;;;;;;5015596;28;20021;-64
2023/11/23 05:04:25;;;;;;;45.03;19.53;;;;;;;;;;5019835;28;20032;-65
2023/11/23 05:06:51;;;;;;;51.90;19.23;;;;;;;;;;5019328;28;20462;-63
2023/11/23 05:09:16;;;;;;;41.93;18.60;;;;;;;;;;5015010;28;20052;-65
2023/11/23 05:11:42;;;;;;;47.47;19.80;;;;;;;;;;5016007;28;20029;-64
2023/11/23 05:14:07;;;;;;;42.63;17.03;;;;;;;;;;5014175;28;20101;-64
2023/11/23 05:16:33;;;;;;;45.03;19.37;;;;;;;;;;5015169;28;20100;-65
2023/11/23 05:18:58;;;;;;;41.70;18.63;;;;;;;;;;5013280;28;20045;-64
2023/11/23 05:21:23;;;;;;;46.43;20.07;;;;;;;;;;5015915;28;20033;-63
2023/11/23 05:23:48;;;;;;;47.60;19.90;;;;;;;;;;5014197;28;20037;-65
2023/11/23 05:26:13;;;;;;;47.03;19.63;;;;;;;;;;5014082;28;20021;-63
2023/11/23 05:28:39;;;;;;;45.47;17.37;;;;;;;;;;5018068;28;20053;-65
2023/11/23 05:31:04;;;;;;;50.07;20.97;;;;;;;;;;5019771;28;20173;-64
2023/11/23 05:33:29;;;;;;;42.37;18.10;;;;;;;;;;5014926;28;20022;-63
2023/11/23 05:35:55;;;;;;;34.80;15.70;;;;;;;;;;5015289;28;20482;-63
2023/11/23 05:38:20;;;;;;;30.20;15.07;;;;;;;;;;5019024;28;20013;-64
2023/11/23 05:40:45;;;;;;;29.97;14.33;;;;;;;;;;5013919;28;20021;-64
2023/11/23 05:43:11;;;;;;;40.23;17.73;;;;;;;;;;5018844;28;20020;-65
2023/11/23 05:45:36;;;;;;;36.80;15.93;;;;;;;;;;5016624;28;20551;-64
2023/11/23 05:48:01;;;;;;;29.03;14.07;;;;;;;;;;5019165;28;20536;-64
2023/11/23 05:50:26;;;;;;;36.43;16.67;;;;;;;;;;5018537;28;20564;-64
2023/11/23 05:52:52;;;;;;;29.97;13.20;;;;;;;;;;5016131;28;20057;-63
2023/11/23 05:55:17;;;;;;;25.53;13.20;;;;;;;;;;5017018;28;20036;-64
2023/11/23 05:57:42;;;;;;;35.57;16.60;;;;;;;;;;5015935;28;20381;-64
2023/11/23 06:00:09;;;;;;;29.87;13.63;;;;;;;;;;5020154;28;20470;-64
2023/11/23 06:02:34;;;;;;;30.40;13.23;;;;;;;;;;5017448;28;20474;-65
2023/11/23 06:04:59;;;;;;;24.77;12.57;;;;;;;;;;5020018;28;20033;-64
2023/11/23 06:07:24;;;;;;;32.17;14.10;;;;;;;;;;5017991;28;20037;-67
2023/11/23 06:09:51;;;;;;;24.83;11.70;;;;;;;;;;5014332;28;20039;-66
2023/11/23 06:12:16;;;;;;;24.07;10.83;;;;;;;;;;5012726;28;20647;-67
2023/11/23 06:14:41;;;;;;;28.40;13.27;;;;;;;;;;5019560;28;20026;-69
2023/11/23 06:17:09;;;;;;;28.40;12.77;;;;;;;;;;5015087;28;20060;-68
2023/11/23 06:19:35;;;;;;;26.63;12.07;;;;;;;;;;5022444;28;20071;-68
2023/11/23 06:22:01;;;;;;;24.17;12.23;;;;;;;;;;5016762;28;20049;-70
2023/11/23 06:24:26;;;;;;;30.97;13.73;;;;;;;;;;5012381;28;20576;-69
2023/11/23 06:26:52;;;;;;;25.50;13.73;;;;;;;;;;5020181;28;20013;-69
2023/11/23 06:29:17;;;;;;;24.53;12.73;;;;;;;;;;5016584;28;20017;-67
2023/11/23 06:31:43;;;;;;;26.03;12.37;;;;;;;;;;5020273;28;20044;-67
2023/11/23 06:34:08;;;;;;;26.20;12.20;;;;;;;;;;5015397;28;20042;-68
2023/11/23 06:36:33;;;;;;;27.10;12.13;;;;;;;;;;5023448;28;20168;-68
2023/11/23 06:38:58;;;;;;;30.17;13.17;;;;;;;;;;5023243;28;20053;-68
2023/11/23 06:41:24;;;;;;;23.33;11.17;;;;;;;;;;5022438;28;20116;-66
2023/11/23 06:43:49;;;;;;;23.77;11.17;;;;;;;;;;5020712;28;20076;-64
2023/11/23 06:46:15;;;;;;;24.23;11.17;;;;;;;;;;5020844;28;20017;-66
2023/11/23 06:48:41;;;;;;;31.90;13.63;;;;;;;;;;5021916;28;20028;-69
2023/11/23 06:51:06;;;;;;;25.57;11.70;;;;;;;;;;5021812;28;20033;-67
2023/11/23 06:53:32;;;;;;;24.30;10.07;;;;;;;;;;5020324;28;20022;-67
2023/11/23 06:56:02;;;;;;;24.57;11.53;;;;;;;;;;5021185;28;20120;-68
2023/11/23 06:58:27;;;;;;;20.57;10.10;;;;;;;;;;5018598;28;20030;-70
2023/11/23 07:00:53;;;;;;;20.47;10.97;;;;;;;;;;5019810;28;20619;-65
2023/11/23 07:03:21;;;;;;;20.53;9.33;;;;;;;;;;5016826;28;20018;-65
2023/11/23 07:05:46;;;;;;;22.37;10.53;;;;;;;;;;5016966;28;20284;-68
2023/11/23 07:08:11;;;;;;;23.37;10.30;;;;;;;;;;5016353;28;20101;-68
2023/11/23 07:10:38;;;;;;;27.00;10.43;;;;;;;;;;5017510;28;20064;-66
2023/11/23 07:13:03;;;;;;;20.20;9.03;;;;;;;;;;5015266;28;20029;-67
2023/11/23 07:15:29;;;;;;;21.97;9.20;;;;;;;;;;5017652;28;20025;-66
2023/11/23 07:17:56;;;;;;;18.07;7.97;;;;;;;;;;5021421;28;20052;-63
2023/11/23 07:20:22;;;;;;;19.17;9.80;;;;;;;;;;5012381;28;20033;-64
2023/11/23 07:22:47;;;;;;;18.47;8.80;;;;;;;;;;5016444;28;20312;-64
2023/11/23 07:25:14;;;;;;;18.77;9.13;;;;;;;;;;5016957;28;20670;-63
2023/11/23 07:27:39;;;;;;;22.00;9.03;;;;;;;;;;5019055;28;20428;-62
2023/11/23 07:30:07;;;;;;;23.43;8.43;;;;;;;;;;5019732;28;20022;-63
2023/11/23 07:32:33;;;;;;;16.40;7.77;;;;;;;;;;5012439;28;20030;-64
2023/11/23 07:34:59;;;;;;;19.77;8.10;;;;;;;;;;5016739;28;20044;-64
2023/11/23 07:37:24;;;;;;;16.57;7.60;;;;;;;;;;5021939;28;20375;-63
2023/11/23 07:39:50;;;;;;;18.30;7.00;;;;;;;;;;5018583;28;20025;-62
2023/11/23 07:42:15;;;;;;;19.80;8.03;;;;;;;;;;5015600;28;20029;-63
2023/11/23 07:44:41;;;;;;;17.47;6.13;;;;;;;;;;5019394;28;21100;-64
2023/11/23 07:47:10;;;;;;;17.00;6.17;;;;;;;;;;5019867;28;20029;-61
2023/11/23 07:49:36;;;;;;;15.67;6.17;;;;;;;;;;5018377;28;20458;-64
2023/11/23 07:52:01;;;;;;;12.27;6.13;;;;;;;;;;5018610;28;20032;-63
2023/11/23 07:54:27;;;;;;;9.57;4.70;;;;;;;;;;5017548;28;20030;-64
2023/11/23 07:56:53;;;;;;;14.97;7.93;;;;;;;;;;5017501;28;20502;-64
2023/11/23 07:59:18;;;;;;;15.90;6.50;;;;;;;;;;5016575;28;20091;-64
2023/11/23 08:01:44;;;;;;;15.77;5.80;;;;;;;;;;5017292;28;20079;-64
2023/11/23 08:04:11;;;;;;;15.17;6.50;;;;;;;;;;5018595;28;20021;-65
2023/11/23 08:06:36;;;;;;;15.90;5.67;;;;;;;;;;5016447;28;20053;-62
2023/11/23 08:09:04;;;;;;;10.37;4.53;;;;;;;;;;5017220;28;20119;-65
2023/11/23 08:11:30;;;;;;;8.17;3.90;;;;;;;;;;5014109;28;20555;-65
2023/11/23 08:13:55;;;;;;;24.83;4.10;;;;;;;;;;4999766;28;20052;-63
2023/11/23 08:16:20;;;;;;;9.97;4.70;;;;;;;;;;5023412;28;20025;-64
2023/11/23 08:18:46;;;;;;;11.40;4.57;;;;;;;;;;5018399;28;20033;-62
2023/11/23 08:21:11;;;;;;;10.87;4.20;;;;;;;;;;5013616;28;20044;-62
2023/11/23 08:23:36;;;;;;;14.33;4.40;;;;;;;;;;5015221;28;20038;-63
2023/11/23 08:26:03;;;;;;;15.20;3.63;;;;;;;;;;5018197;28;20661;-62
2023/11/23 08:28:28;;;;;;;15.30;4.70;;;;;;;;;;5015062;28;20033;-66
2023/11/23 08:30:53;;;;;;;9.03;3.60;;;;;;;;;;5010357;28;20178;-66
2023/11/23 08:33:19;;;;;;;13.33;4.00;;;;;;;;;;5014814;28;20026;-68
2023/11/23 08:35:45;;;;;;;8.80;3.20;;;;;;;;;;5015580;28;20025;-67
2023/11/23 08:38:11;;;;;;;11.70;3.17;;;;;;;;;;5011964;28;20025;-70
2023/11/23 08:40:36;;;;;;;10.60;3.47;;;;;;;;;;5016742;28;20035;-70
2023/11/23 08:43:03;;;;;;;13.13;3.23;;;;;;;;;;5015933;28;20144;-66
2023/11/23 08:45:29;;;;;;;7.10;3.00;;;;;;;;;;5015630;28;20079;-70
2023/11/23 08:47:55;;;;;;;8.43;2.93;;;;;;;;;;5013949;28;20026;-65
2023/11/23 08:50:20;;;;;;;9.80;3.20;;;;;;;;;;5014439;28;20201;-66
2023/11/23 08:52:45;;;;;;;13.27;3.63;;;;;;;;;;5015748;28;20076;-67
2023/11/23 08:55:10;;;;;;;15.33;4.47;;;;;;;;;;5017880;28;20044;-69
2023/11/23 08:57:36;;;;;;;8.57;3.20;;;;;;;;;;5017755;28;20378;-68
2023/11/23 09:00:02;;;;;;;9.97;3.17;;;;;;;;;;5015966;28;20018;-67
2023/11/23 09:02:28;;;;;;;9.47;2.80;;;;;;;;;;5014757;28;20033;-71
2023/11/23 09:04:53;;;;;;;8.53;2.80;;;;;;;;;;5018363;28;20026;-68
2023/11/23 09:07:20;;;;;;;9.83;3.17;;;;;;;;;;5017237;28;20071;-70
2023/11/23 09:09:46;;;;;;;12.60;3.47;;;;;;;;;;5016551;28;20029;-67
2023/11/23 09:12:12;;;;;;;8.77;2.23;;;;;;;;;;5017340;28;20417;-71
2023/11/23 09:14:37;;;;;;;12.77;3.10;;;;;;;;;;5016115;28;20032;-70
2023/11/23 09:17:03;;;;;;;11.33;2.97;;;;;;;;;;5011890;28;20044;-68
2023/11/23 09:19:28;;;;;;;14.67;3.63;;;;;;;;;;5014338;28;20707;-66
2023/11/23 09:21:54;;;;;;;8.03;2.57;;;;;;;;;;5014308;28;20049;-69
2023/11/23 09:24:21;;;;;;;9.00;2.77;;;;;;;;;;5016154;28;20021;-68
2023/11/23 09:26:47;;;;;;;7.73;2.60;;;;;;;;;;5010578;28;20024;-67
2023/11/23 09:29:12;;;;;;;10.57;2.43;;;;;;;;;;5011751;28;20109;-67
2023/11/23 09:31:37;;;;;;;9.77;2.67;;;;;;;;;;5017630;28;20026;-66
2023/11/23 09:34:03;;;;;;;10.00;2.70;;;;;;;;;;5017241;28;20057;-68
2023/11/23 09:36:29;;;;;;;7.60;2.00;;;;;;;;;;5013645;28;20026;-66
2023/11/23 09:38:55;;;;;;;8.40;2.30;;;;;;;;;;5009342;28;20118;-63
2023/11/23 09:41:22;;;;;;;7.20;2.47;;;;;;;;;;5011956;28;20648;-62
2023/11/23 09:43:47;;;;;;;7.73;2.00;;;;;;;;;;5018083;28;20026;-64
2023/11/23 09:46:14;;;;;;;6.25;2.13;;;;;;;;;;5015147;28;20021;-63
2023/11/23 09:48:41;;;;;;;5.27;1.80;;;;;;;;;;5010184;28;20029;-66
2023/11/23 09:51:09;;;;;;;4.97;1.77;;;;;;;;;;5009433;28;20400;-66
2023/11/23 09:53:35;;;;;;;8.50;2.43;;;;;;;;;;5022344;28;20052;-64
2023/11/23 09:56:01;;;;;;;8.30;2.10;;;;;;;;;;5017511;28;20080;-64
2023/11/23 09:58:26;;;;;;;10.83;2.37;;;;;;;;;;5019787;28;20029;-66
2023/11/23 10:00:52;;;;;;;6.68;2.10;;;;;;;;;;5016648;28;20099;-70
2023/11/23 10:03:20;;;;;;;7.67;1.90;;;;;;;;;;5023812;28;20021;-72
2023/11/23 10:05:45;;;;;;;8.90;1.90;;;;;;;;;;5019245;28;20497;-69
2023/11/23 10:08:11;;;;;;;8.37;1.90;;;;;;;;;;5018098;28;20018;-67
2023/11/23 10:10:37;;;;;;;5.60;1.80;;;;;;;;;;5018421;28;20071;-67
2023/11/23 10:13:03;;;;;;;6.97;1.70;;;;;;;;;;5020464;28;20367;-67
2023/11/23 10:15:29;;;;;;;7.03;1.80;;;;;;;;;;5021711;28;20390;-68
2023/11/23 10:17:54;;;;;;;7.93;2.00;;;;;;;;;;5019844;28;20026;-68
2023/11/23 10:20:21;;;;;;;4.70;1.33;;;;;;;;;;5014754;28;20157;-69
2023/11/23 10:22:50;;;;;;;10.63;2.13;;;;;;;;;;5019497;28;20048;-70
2023/11/23 10:25:35;;;;;;;7.70;1.60;;;;;;;;;;5017589;28;20029;-69
2023/11/23 10:28:01;;;;;;;7.27;1.40;;;;;;;;;;5021453;28;20032;-65
2023/11/23 10:30:27;;;;;;;2.93;1.33;;;;;;;;;;5018960;28;20581;-67
2023/11/23 10:32:56;;;;;;;3.67;1.47;;;;;;;;;;5019401;28;20013;-72
2023/11/23 10:35:21;;;;;;;8.53;1.80;;;;;;;;;;5016450;28;20500;-67
2023/11/23 10:37:52;;;;;;;10.35;2.00;;;;;;;;;;5017735;28;20022;-66
2023/11/23 10:40:18;;;;;;;7.23;1.57;;;;;;;;;;5018824;28;20052;-67
2023/11/23 10:42:44;;;;;;;5.97;1.50;;;;;;;;;;5018064;28;20114;-68
2023/11/23 10:45:12;;;;;;;6.83;1.57;;;;;;;;;;5022670;28;20045;-66
2023/11/23 10:47:38;;;;;;;9.27;1.80;;;;;;;;;;5020592;28;20500;-67
2023/11/23 10:50:05;;;;;;;8.67;1.70;;;;;;;;;;5016682;28;20021;-63
2023/11/23 10:52:32;;;;;;;4.57;1.60;;;;;;;;;;5017078;28;20633;-64
2023/11/23 10:54:58;;;;;;;5.32;1.48;;;;;;;;;;5019753;28;20029;-62
2023/11/23 10:57:25;;;;;;;5.27;1.70;;;;;;;;;;5019734;28;20041;-63
2023/11/23 10:59:51;;;;;;;4.13;1.33;;;;;;;;;;5011880;28;20166;-63
2023/11/23 11:02:17;;;;;;;8.00;1.70;;;;;;;;;;5025046;28;20041;-64
2023/11/23 11:04:42;;;;;;;6.13;1.67;;;;;;;;;;5019060;28;20563;-64
2023/11/23 11:07:08;;;;;;;4.65;1.40;;;;;;;;;;5017584;28;20052;-62
2023/11/23 11:09:34;;;;;;;6.05;1.60;;;;;;;;;;5015068;28;20029;-64
2023/11/23 11:12:01;;;;;;;6.87;1.80;;;;;;;;;;5018719;28;20496;-66
2023/11/23 11:14:36;;;;;;;6.70;1.70;;;;;;;;;;5020575;28;20033;-62
2023/11/23 11:17:02;;;;;;;6.37;1.50;;;;;;;;;;5014382;28;20451;-63
2023/11/23 11:19:27;;;;;;;7.70;2.00;;;;;;;;;;5016657;28;20128;-62
2023/11/23 11:21:58;;;;;;;8.00;1.93;;;;;;;;;;5016847;28;20049;-63
2023/11/23 11:24:26;;;;;;;8.67;1.93;;;;;;;;;;5017554;28;20510;-63
2023/11/23 11:26:58;;;;;;;6.10;1.57;;;;;;;;;;5017474;28;20055;-63
2023/11/23 11:29:23;;;;;;;9.10;2.20;;;;;;;;;;5017510;28;20028;-62
2023/11/23 11:31:49;;;;;;;6.57;1.53;;;;;;;;;;5017882;28;20520;-62
2023/11/23 11:34:21;;;;;;;6.30;1.83;;;;;;;;;;5016699;28;20080;-63
2023/11/23 11:36:59;;;;;;;11.00;1.85;;;;;;;;;;5016352;28;20021;-62
2023/11/23 11:39:31;;;;;;;6.70;1.80;;;;;;;;;;5016417;28;20032;-64
2023/11/23 11:41:59;;;;;;;7.90;1.57;;;;;;;;;;5019091;28;20489;-63
2023/11/23 11:44:25;;;;;;;5.50;1.40;;;;;;;;;;5016622;28;20549;-63
2023/11/23 11:46:50;;;;;;;6.10;1.90;;;;;;;;;;5016355;28;20092;-63
2023/11/23 11:49:15;;;;;;;3.57;1.23;;;;;;;;;;5022220;28;20021;-63
2023/11/23 11:51:41;;;;;;;11.33;2.00;;;;;;;;;;5015981;28;20544;-64
2023/11/23 11:54:06;;;;;;;8.93;2.50;;;;;;;;;;5014203;28;20040;-63
2023/11/23 11:56:32;;;;;;;8.47;1.80;;;;;;;;;;5013475;28;20091;-63
2023/11/23 11:58:58;;;;;;;3.30;1.37;;;;;;;;;;5021384;28;20017;-62
2023/11/23 12:01:24;;;;;;;7.67;1.87;;;;;;;;;;5017951;28;20128;-64
2023/11/23 12:03:49;;;;;;;5.60;1.45;;;;;;;;;;5020714;28;20113;-64
2023/11/23 12:06:18;;;;;;;6.87;1.70;;;;;;;;;;5016857;28;20022;-62
2023/11/23 12:08:44;;;;;;;7.27;1.80;;;;;;;;;;5013274;28;20659;-63
2023/11/23 12:11:20;;;;;;;9.53;2.30;;;;;;;;;;5020519;28;20105;-64
2023/11/23 12:13:45;;;;;;;5.43;2.03;;;;;;;;;;5015904;28;20064;-64
2023/11/23 12:16:11;;;;;;;6.63;1.92;;;;;;;;;;5021862;28;20029;-65
2023/11/23 12:18:36;;;;;;;8.80;2.27;;;;;;;;;;5016517;28;20036;-63
2023/11/23 12:21:06;;;;;;;4.23;1.30;;;;;;;;;;5018578;28;20022;-63
2023/11/23 12:23:39;;;;;;;6.97;1.93;;;;;;;;;;5015764;28;20041;-63
2023/11/23 12:26:04;;;;;;;9.00;2.07;;;;;;;;;;5017826;28;20040;-65
2023/11/23 12:28:29;;;;;;;7.27;2.00;;;;;;;;;;5017303;28;20033;-62
2023/11/23 12:30:55;;;;;;;6.97;1.77;;;;;;;;;;5017535;28;20029;-64
2023/11/23 12:33:20;;;;;;;6.43;2.10;;;;;;;;;;5020386;28;20047;-63
2023/11/23 12:35:47;;;;;;;8.17;2.30;;;;;;;;;;5015366;28;20029;-63
2023/11/23 12:38:13;;;;;;;6.60;2.30;;;;;;;;;;5015023;28;20533;-62
2023/11/23 12:40:38;;;;;;;8.20;1.80;;;;;;;;;;5017390;28;20108;-63
2023/11/23 12:43:03;;;;;;;9.30;2.20;;;;;;;;;;5015909;28;20033;-62
2023/11/23 12:45:28;;;;;;;11.80;2.90;;;;;;;;;;5017338;28;20025;-63
2023/11/23 12:47:54;;;;;;;7.43;1.93;;;;;;;;;;5016968;28;20552;-61
2023/11/23 12:50:21;;;;;;;5.50;1.60;;;;;;;;;;5021489;28;20486;-63
2023/11/23 12:52:47;;;;;;;7.60;2.17;;;;;;;;;;5014841;28;20467;-62
2023/11/23 12:55:12;;;;;;;8.43;1.60;;;;;;;;;;5015097;28;20040;-64
2023/11/23 12:57:37;;;;;;;10.57;2.03;;;;;;;;;;5017226;28;20069;-63
2023/11/23 13:00:06;;;;;;;6.43;1.70;;;;;;;;;;5017291;28;20029;-62
2023/11/23 13:02:32;;;;;;;8.77;2.20;;;;;;;;;;5012740;28;20422;-63
2023/11/23 13:04:58;;;;;;;5.67;1.60;;;;;;;;;;5015979;28;20072;-62
2023/11/23 13:07:24;;;;;;;5.47;1.60;;;;;;;;;;5021554;28;20056;-62
2023/11/23 13:09:49;;;;;;;5.43;1.87;;;;;;;;;;5018875;28;20032;-71
2023/11/23 13:12:17;;;;;;;12.90;2.47;;;;;;;;;;5020760;28;20019;-70
2023/11/23 13:14:43;;;;;;;4.27;1.50;;;;;;;;;;5008509;28;20045;-69
2023/11/23 13:17:09;;;;;;;7.38;1.90;;;;;;;;;;5010605;28;20032;-69
2023/11/23 13:19:35;;;;;;;6.57;2.05;;;;;;;;;;5018443;28;20371;-70
2023/11/23 13:22:01;;;;;;;3.92;1.77;;;;;;;;;;5014611;28;20045;-68
2023/11/23 13:24:27;;;;;;;6.13;1.90;;;;;;;;;;5011504;28;20060;-67
2023/11/23 13:26:53;;;;;;;4.00;1.40;;;;;;;;;;5012936;28;20103;-68
2023/11/23 13:29:18;;;;;;;6.50;1.97;;;;;;;;;;5017846;28;20513;-70
2023/11/23 13:31:43;;;;;;;6.00;1.83;;;;;;;;;;5017658;28;20413;-67
2023/11/23 13:34:10;;;;;;;4.88;1.60;;;;;;;;;;5012501;28;20041;-66
2023/11/23 13:36:35;;;;;;;6.10;1.65;;;;;;;;;;5013872;28;20043;-68
2023/11/23 13:39:01;;;;;;;5.63;1.50;;;;;;;;;;5017337;28;20520;-67
2023/11/23 13:41:27;;;;;;;10.50;2.30;;;;;;;;;;5014693;28;20108;-66
2023/11/23 13:43:54;;;;;;;5.38;1.55;;;;;;;;;;5015802;28;20667;-72
2023/11/23 13:46:20;;;;;;;4.90;1.50;;;;;;;;;;5012678;28;20025;-69
2023/11/23 13:48:46;;;;;;;2.10;1.03;;;;;;;;;;5016308;28;20414;-68
2023/11/23 13:51:12;;;;;;;4.13;1.20;;;;;;;;;;5012884;28;20109;-74
2023/11/23 13:53:38;;;;;;;4.22;1.25;;;;;;;;;;5016488;28;20632;-70
2023/11/23 13:56:04;;;;;;;6.00;1.57;;;;;;;;;;5018547;28;20112;-68
2023/11/23 13:58:30;;;;;;;5.33;1.60;;;;;;;;;;5016037;28;20648;-74
2023/11/23 14:00:55;;;;;;;7.23;1.80;;;;;;;;;;5014160;28;20026;-65
2023/11/23 14:03:20;;;;;;;6.17;2.00;;;;;;;;;;5014910;28;20049;-65
2023/11/23 14:05:46;;;;;;;6.17;1.40;;;;;;;;;;5016676;28;20425;-72
2023/11/23 14:08:11;;;;;;;6.67;2.30;;;;;;;;;;5017443;28;20105;-65
2023/11/23 14:10:36;;;;;;;6.40;2.13;;;;;;;;;;5013030;28;20041;-65
2023/11/23 14:13:01;;;;;;;7.73;2.30;;;;;;;;;;5015519;28;20060;-66
2023/11/23 14:15:27;;;;;;;5.43;2.07;;;;;;;;;;5017718;28;20022;-71
2023/11/23 14:17:52;;;;;;;9.97;2.60;;;;;;;;;;5016469;28;20048;-66
2023/11/23 14:20:17;;;;;;;10.27;2.50;;;;;;;;;;5011521;28;20295;-66